sensor_id;sensor_type;location;lat;lon;timestamp;pressure;altitude;pressure_sealevel;temperature;humidity
29371;BME280;16357;52.188;7.838;2022-10-14T00:01:20;100816.72;;;16.34;66.89
29371;BME280;16357;52.188;7.838;2022-10-14T00:03:48;100825.69;;;16.35;66.67
29371;BME280;16357;52.188;7.838;2022-10-14T00:06:18;100816.72;;;16.34;66.74
29371;BME280;16357;52.188;7.838;2022-10-14T00:08:45;100812.53;;;16.32;66.73
29371;BME280;16357;52.188;7.838;2022-10-14T00:11:18;100812.53;;;16.32;66.47
29371;BME280;16357;52.188;7.838;2022-10-14T00:13:45;100807.31;;;16.30;66.45
29371;BME280;16357;52.188;7.838;2022-10-14T00:16:17;100806.47;;;16.30;66.22
29371;BME280;16357;52.188;7.838;2022-10-14T00:18:44;100804.13;;;16.27;66.46
29371;BME280;16357;52.188;7.838;2022-10-14T00:21:11;100805.19;;;16.26;66.49
29371;BME280;16357;52.188;7.838;2022-10-14T00:23:38;100798.28;;;16.23;66.50
29371;BME280;16357;52.188;7.838;2022-10-14T00:26:05;100800.34;;;16.21;66.35
29371;BME280;16357;52.188;7.838;2022-10-14T00:28:31;100796.97;;;16.19;66.44
29371;BME280;16357;52.188;7.838;2022-10-14T00:31:00;100797.19;;;16.17;66.32
29371;BME280;16357;52.188;7.838;2022-10-14T00:33:27;100794.88;;;16.14;66.13
29371;BME280;16357;52.188;7.838;2022-10-14T00:35:58;100798.41;;;16.15;66.16
29371;BME280;16357;52.188;7.838;2022-10-14T00:38:26;100795.22;;;16.11;66.43
29371;BME280;16357;52.188;7.838;2022-10-14T00:40:53;100798.97;;;16.10;66.43
29371;BME280;16357;52.188;7.838;2022-10-14T00:43:21;100786.47;;;16.09;66.51
29371;BME280;16357;52.188;7.838;2022-10-14T00:45:48;100794.59;;;16.09;66.36
29371;BME280;16357;52.188;7.838;2022-10-14T00:48:15;100794.41;;;16.11;66.33
29371;BME280;16357;52.188;7.838;2022-10-14T00:50:44;100791.91;;;16.09;66.08
29371;BME280;16357;52.188;7.838;2022-10-14T00:53:13;100796.44;;;16.09;66.24
29371;BME280;16357;52.188;7.838;2022-10-14T00:55:41;100792.91;;;16.08;65.99
29371;BME280;16357;52.188;7.838;2022-10-14T00:58:08;100787.72;;;16.07;65.97
29371;BME280;16357;52.188;7.838;2022-10-14T01:00:35;100789.56;;;16.06;65.89
29371;BME280;16357;52.188;7.838;2022-10-14T01:03:07;100786.22;;;16.04;65.41
29371;BME280;16357;52.188;7.838;2022-10-14T01:05:39;100790.31;;;16.00;64.99
29371;BME280;16357;52.188;7.838;2022-10-14T01:08:16;100791.75;;;15.96;65.13
29371;BME280;16357;52.188;7.838;2022-10-14T01:10:59;100796.03;;;15.90;64.96
29371;BME280;16357;52.188;7.838;2022-10-14T01:18:51;100796.91;;;15.76;65.54
29371;BME280;16357;52.188;7.838;2022-10-14T01:24:06;100796.97;;;15.68;65.72
29371;BME280;16357;52.188;7.838;2022-10-14T01:33:27;100801.84;;;15.57;65.72
29371;BME280;16357;52.188;7.838;2022-10-14T01:35:52;100795.78;;;15.55;65.80
29371;BME280;16357;52.188;7.838;2022-10-14T01:38:29;100796.16;;;15.52;65.76
29371;BME280;16357;52.188;7.838;2022-10-14T01:40:59;100789.91;;;15.52;65.71
29371;BME280;16357;52.188;7.838;2022-10-14T01:43:28;100789.47;;;15.48;65.73
29371;BME280;16357;52.188;7.838;2022-10-14T01:45:58;100789.81;;;15.45;65.84
29371;BME280;16357;52.188;7.838;2022-10-14T01:48:31;100791.69;;;15.45;65.91
29371;BME280;16357;52.188;7.838;2022-10-14T01:50:59;100793.09;;;15.41;66.11
29371;BME280;16357;52.188;7.838;2022-10-14T01:53:37;100794.09;;;15.40;66.24
29371;BME280;16357;52.188;7.838;2022-10-14T01:56:05;100787.22;;;15.37;66.27
29371;BME280;16357;52.188;7.838;2022-10-14T01:58:33;100790.75;;;15.37;66.35
29371;BME280;16357;52.188;7.838;2022-10-14T02:01:05;100788.91;;;15.38;65.98
29371;BME280;16357;52.188;7.838;2022-10-14T02:03:43;100784.50;;;15.37;66.05
29371;BME280;16357;52.188;7.838;2022-10-14T02:06:33;100792.63;;;15.37;66.13
29371;BME280;16357;52.188;7.838;2022-10-14T02:09:08;100780.97;;;15.36;66.29
29371;BME280;16357;52.188;7.838;2022-10-14T02:17:08;100783.66;;;15.36;66.06
29371;BME280;16357;52.188;7.838;2022-10-14T02:19:44;100790.94;;;15.36;65.96
29371;BME280;16357;52.188;7.838;2022-10-14T02:22:28;100782.84;;;15.36;66.09
29371;BME280;16357;52.188;7.838;2022-10-14T02:25:02;100788.41;;;15.34;66.10
29371;BME280;16357;52.188;7.838;2022-10-14T02:27:32;100786.75;;;15.33;66.00
29371;BME280;16357;52.188;7.838;2022-10-14T02:30:00;100782.56;;;15.31;66.15
29371;BME280;16357;52.188;7.838;2022-10-14T02:32:30;100784.44;;;15.30;66.07
29371;BME280;16357;52.188;7.838;2022-10-14T02:34:58;100786.28;;;15.30;66.14
29371;BME280;16357;52.188;7.838;2022-10-14T02:37:26;100789.84;;;15.30;66.11
29371;BME280;16357;52.188;7.838;2022-10-14T02:39:58;100790.50;;;15.32;66.00
29371;BME280;16357;52.188;7.838;2022-10-14T02:42:26;100786.09;;;15.31;65.95
29371;BME280;16357;52.188;7.838;2022-10-14T02:44:55;100783.38;;;15.31;66.03
29371;BME280;16357;52.188;7.838;2022-10-14T02:47:23;100780.50;;;15.33;66.20
29371;BME280;16357;52.188;7.838;2022-10-14T02:49:50;100774.28;;;15.32;66.19
29371;BME280;16357;52.188;7.838;2022-10-14T02:52:17;100770.53;;;15.33;66.26
29371;BME280;16357;52.188;7.838;2022-10-14T02:54:44;100775.75;;;15.35;66.26
29371;BME280;16357;52.188;7.838;2022-10-14T02:57:10;100767.66;;;15.35;66.28
29371;BME280;16357;52.188;7.838;2022-10-14T02:59:37;100768.50;;;15.35;66.08
29371;BME280;16357;52.188;7.838;2022-10-14T03:02:05;100763.91;;;15.36;65.93
29371;BME280;16357;52.188;7.838;2022-10-14T03:04:35;100763.09;;;15.35;66.24
29371;BME280;16357;52.188;7.838;2022-10-14T03:07:02;100759.34;;;15.36;65.80
29371;BME280;16357;52.188;7.838;2022-10-14T03:09:29;100756.84;;;15.35;65.88
29371;BME280;16357;52.188;7.838;2022-10-14T03:11:55;100767.44;;;15.36;65.68
29371;BME280;16357;52.188;7.838;2022-10-14T03:14:21;100769.31;;;15.36;65.66
29371;BME280;16357;52.188;7.838;2022-10-14T03:16:48;100770.97;;;15.37;65.66
29371;BME280;16357;52.188;7.838;2022-10-14T03:19:14;100760.16;;;15.37;65.60
29371;BME280;16357;52.188;7.838;2022-10-14T03:21:41;100770.16;;;15.36;65.63
29371;BME280;16357;52.188;7.838;2022-10-14T03:24:08;100770.16;;;15.36;65.55
29371;BME280;16357;52.188;7.838;2022-10-14T03:26:34;100763.91;;;15.36;65.45
29371;BME280;16357;52.188;7.838;2022-10-14T03:29:01;100758.50;;;15.36;65.41
29371;BME280;16357;52.188;7.838;2022-10-14T03:31:27;100757.69;;;15.35;65.27
29371;BME280;16357;52.188;7.838;2022-10-14T03:33:54;100765.78;;;15.35;65.57
29371;BME280;16357;52.188;7.838;2022-10-14T03:36:20;100750.56;;;15.34;65.63
29371;BME280;16357;52.188;7.838;2022-10-14T03:38:46;100752.28;;;15.35;65.60
29371;BME280;16357;52.188;7.838;2022-10-14T03:41:13;100751.44;;;15.35;65.59
29371;BME280;16357;52.188;7.838;2022-10-14T03:43:39;100754.13;;;15.35;65.52
29371;BME280;16357;52.188;7.838;2022-10-14T03:46:05;100747.88;;;15.34;65.67
29371;BME280;16357;52.188;7.838;2022-10-14T03:48:32;100746.88;;;15.35;65.66
29371;BME280;16357;52.188;7.838;2022-10-14T03:50:58;100746.03;;;15.35;65.52
29371;BME280;16357;52.188;7.838;2022-10-14T03:53:24;100742.47;;;15.34;65.42
29371;BME280;16357;52.188;7.838;2022-10-14T03:55:51;100745.16;;;15.34;65.49
29371;BME280;16357;52.188;7.838;2022-10-14T03:58:17;100737.44;;;15.31;65.46
29371;BME280;16357;52.188;7.838;2022-10-14T04:00:43;100735.56;;;15.32;65.51
29371;BME280;16357;52.188;7.838;2022-10-14T04:03:10;100733.06;;;15.30;65.44
29371;BME280;16357;52.188;7.838;2022-10-14T04:05:36;100730.53;;;15.29;65.29
29371;BME280;16357;52.188;7.838;2022-10-14T04:08:03;100728.03;;;15.27;65.38
29371;BME280;16357;52.188;7.838;2022-10-14T04:10:29;100725.50;;;15.26;65.37
29371;BME280;16357;52.188;7.838;2022-10-14T04:12:56;100724.19;;;15.22;65.29
29371;BME280;16357;52.188;7.838;2022-10-14T04:15:22;100724.78;;;15.17;65.13
29371;BME280;16357;52.188;7.838;2022-10-14T04:17:49;100730.75;;;15.12;65.00
29371;BME280;16357;52.188;7.838;2022-10-14T04:20:16;100731.50;;;15.06;64.70
29371;BME280;16357;52.188;7.838;2022-10-14T04:22:42;100733.06;;;15.01;65.11
29371;BME280;16357;52.188;7.838;2022-10-14T04:25:09;100736.50;;;14.95;65.25
29371;BME280;16357;52.188;7.838;2022-10-14T04:27:35;100736.03;;;14.91;65.52
29371;BME280;16357;52.188;7.838;2022-10-14T04:30:03;100736.41;;;14.88;65.72
29371;BME280;16357;52.188;7.838;2022-10-14T04:32:29;100740.31;;;14.85;65.85
29371;BME280;16357;52.188;7.838;2022-10-14T04:34:56;100739.66;;;14.83;65.95
29371;BME280;16357;52.188;7.838;2022-10-14T04:37:22;100739.84;;;14.82;65.90
29371;BME280;16357;52.188;7.838;2022-10-14T04:39:48;100736.31;;;14.81;66.04
29371;BME280;16357;52.188;7.838;2022-10-14T04:42:15;100731.94;;;14.80;66.29
29371;BME280;16357;52.188;7.838;2022-10-14T04:44:42;100728.56;;;14.78;66.19
29371;BME280;16357;52.188;7.838;2022-10-14T04:47:08;100729.78;;;14.76;66.22
29371;BME280;16357;52.188;7.838;2022-10-14T04:49:34;100725.59;;;14.73;66.69
29371;BME280;16357;52.188;7.838;2022-10-14T04:52:01;100724.94;;;14.71;66.56
29371;BME280;16357;52.188;7.838;2022-10-14T04:54:27;100730.53;;;14.69;66.51
29371;BME280;16357;52.188;7.838;2022-10-14T04:56:53;100728.81;;;14.68;66.78
29371;BME280;16357;52.188;7.838;2022-10-14T04:59:20;100726.34;;;14.67;66.58
29371;BME280;16357;52.188;7.838;2022-10-14T05:01:46;100727.16;;;14.67;66.34
29371;BME280;16357;52.188;7.838;2022-10-14T05:04:13;100722.78;;;14.66;66.55
29371;BME280;16357;52.188;7.838;2022-10-14T05:06:39;100720.06;;;14.66;66.69
29371;BME280;16357;52.188;7.838;2022-10-14T05:09:06;100716.75;;;14.64;66.56
29371;BME280;16357;52.188;7.838;2022-10-14T05:11:32;100710.47;;;14.64;66.75
29371;BME280;16357;52.188;7.838;2022-10-14T05:13:59;100706.94;;;14.63;66.57
29371;BME280;16357;52.188;7.838;2022-10-14T05:16:25;100708.81;;;14.63;66.72
29371;BME280;16357;52.188;7.838;2022-10-14T05:18:52;100711.50;;;14.63;66.37
29371;BME280;16357;52.188;7.838;2022-10-14T05:21:18;100706.09;;;14.63;66.81
29371;BME280;16357;52.188;7.838;2022-10-14T05:23:44;100707.16;;;14.62;66.79
29371;BME280;16357;52.188;7.838;2022-10-14T05:26:11;100712.53;;;14.62;66.62
29371;BME280;16357;52.188;7.838;2022-10-14T05:28:37;100713.53;;;14.61;66.72
29371;BME280;16357;52.188;7.838;2022-10-14T05:31:04;100708.16;;;14.61;66.70
29371;BME280;16357;52.188;7.838;2022-10-14T05:33:31;100707.50;;;14.59;66.64
29371;BME280;16357;52.188;7.838;2022-10-14T05:35:57;100703.78;;;14.60;67.01
29371;BME280;16357;52.188;7.838;2022-10-14T05:38:25;100691.31;;;14.59;66.75
29371;BME280;16357;52.188;7.838;2022-10-14T05:40:54;100697.56;;;14.59;66.89
29371;BME280;16357;52.188;7.838;2022-10-14T05:43:20;100704.63;;;14.60;66.76
29371;BME280;16357;52.188;7.838;2022-10-14T05:45:47;100689.25;;;14.61;66.82
29371;BME280;16357;52.188;7.838;2022-10-14T05:48:13;100693.81;;;14.60;66.70
29371;BME280;16357;52.188;7.838;2022-10-14T05:50:41;100697.34;;;14.61;66.78
29371;BME280;16357;52.188;7.838;2022-10-14T05:53:09;100698.22;;;14.61;66.76
29371;BME280;16357;52.188;7.838;2022-10-14T05:55:35;100694.66;;;14.61;66.81
29371;BME280;16357;52.188;7.838;2022-10-14T05:58:02;100691.78;;;14.62;66.75
29371;BME280;16357;52.188;7.838;2022-10-14T06:00:29;100683.84;;;14.61;67.02
29371;BME280;16357;52.188;7.838;2022-10-14T06:02:56;100689.25;;;14.61;66.80
29371;BME280;16357;52.188;7.838;2022-10-14T06:05:23;100678.44;;;14.61;66.64
29371;BME280;16357;52.188;7.838;2022-10-14T06:07:50;100670.34;;;14.61;66.59
29371;BME280;16357;52.188;7.838;2022-10-14T06:10:16;100672.22;;;14.60;67.09
29371;BME280;16357;52.188;7.838;2022-10-14T06:12:43;100671.38;;;14.60;66.65
29371;BME280;16357;52.188;7.838;2022-10-14T06:15:09;100660.59;;;14.60;66.87
29371;BME280;16357;52.188;7.838;2022-10-14T06:17:36;100673.25;;;14.59;66.80
29371;BME280;16357;52.188;7.838;2022-10-14T06:20:02;100668.03;;;14.58;66.80
29371;BME280;16357;52.188;7.838;2022-10-14T06:22:29;100672.41;;;14.59;67.13
29371;BME280;16357;52.188;7.838;2022-10-14T06:24:55;100667.03;;;14.59;67.54
29371;BME280;16357;52.188;7.838;2022-10-14T06:27:29;100669.34;;;14.62;67.26
29371;BME280;16357;52.188;7.838;2022-10-14T06:29:55;100665.44;;;14.64;67.24
29371;BME280;16357;52.188;7.838;2022-10-14T06:32:21;100661.53;;;14.67;67.83
29371;BME280;16357;52.188;7.838;2022-10-14T06:34:48;100656.59;;;14.70;67.64
29371;BME280;16357;52.188;7.838;2022-10-14T06:37:15;100656.22;;;14.74;67.48
29371;BME280;16357;52.188;7.838;2022-10-14T06:39:41;100655.84;;;14.77;67.51
29371;BME280;16357;52.188;7.838;2022-10-14T06:42:10;100653.63;;;14.80;67.51
29371;BME280;16357;52.188;7.838;2022-10-14T06:44:38;100650.53;;;14.83;67.47
29371;BME280;16357;52.188;7.838;2022-10-14T06:47:05;100643.72;;;14.87;67.70
29371;BME280;16357;52.188;7.838;2022-10-14T06:49:32;100636.94;;;14.91;67.78
29371;BME280;16357;52.188;7.838;2022-10-14T06:51:59;100644.47;;;14.96;67.69
29371;BME280;16357;52.188;7.838;2022-10-14T06:54:25;100643.91;;;15.01;67.63
29371;BME280;16357;52.188;7.838;2022-10-14T06:56:51;100639.97;;;15.03;67.92
29371;BME280;16357;52.188;7.838;2022-10-14T06:59:18;100635.88;;;15.07;67.46
29371;BME280;16357;52.188;7.838;2022-10-14T07:01:45;100633.47;;;15.12;67.80
29371;BME280;16357;52.188;7.838;2022-10-14T07:04:12;100640.34;;;15.15;67.72
29371;BME280;16357;52.188;7.838;2022-10-14T07:06:38;100639.78;;;15.20;67.90
29371;BME280;16357;52.188;7.838;2022-10-14T07:09:04;100633.19;;;15.22;67.93
29371;BME280;16357;52.188;7.838;2022-10-14T07:11:31;100633.44;;;15.27;68.11
29371;BME280;16357;52.188;7.838;2022-10-14T07:13:57;100639.94;;;15.33;68.28
29371;BME280;16357;52.188;7.838;2022-10-14T07:16:24;100642.94;;;15.38;68.34
29371;BME280;16357;52.188;7.838;2022-10-14T07:18:51;100639.28;;;15.46;68.52
29371;BME280;16357;52.188;7.838;2022-10-14T07:21:18;100642.03;;;15.52;68.12
29371;BME280;16357;52.188;7.838;2022-10-14T07:23:44;100644.81;;;15.59;68.14
29371;BME280;16357;52.188;7.838;2022-10-14T07:26:11;100646.75;;;15.65;68.17
29371;BME280;16357;52.188;7.838;2022-10-14T07:28:37;100649.75;;;15.70;67.84
29371;BME280;16357;52.188;7.838;2022-10-14T07:31:08;100653.38;;;15.77;67.58
29371;BME280;16357;52.188;7.838;2022-10-14T07:33:36;100642.16;;;15.80;67.84
29371;BME280;16357;52.188;7.838;2022-10-14T07:36:04;100641.59;;;15.85;67.75
29371;BME280;16357;52.188;7.838;2022-10-14T07:38:31;100646.41;;;15.90;67.70
29371;BME280;16357;52.188;7.838;2022-10-14T07:41:03;100643.94;;;15.95;67.62
29371;BME280;16357;52.188;7.838;2022-10-14T07:43:31;100646.25;;;15.98;67.52
29371;BME280;16357;52.188;7.838;2022-10-14T07:46:03;100641.09;;;16.03;67.64
29371;BME280;16357;52.188;7.838;2022-10-14T07:48:32;100639.47;;;16.09;67.82
29371;BME280;16357;52.188;7.838;2022-10-14T07:51:19;100636.19;;;16.13;67.75
29371;BME280;16357;52.188;7.838;2022-10-14T07:53:45;100633.75;;;16.18;67.47
29371;BME280;16357;52.188;7.838;2022-10-14T07:56:14;100639.22;;;16.25;67.89
29371;BME280;16357;52.188;7.838;2022-10-14T07:58:40;100634.88;;;16.31;67.79
29371;BME280;16357;52.188;7.838;2022-10-14T08:01:10;100631.19;;;16.38;67.70
29371;BME280;16357;52.188;7.838;2022-10-14T08:03:36;100631.22;;;16.45;67.79
29371;BME280;16357;52.188;7.838;2022-10-14T08:06:04;100633.16;;;16.51;67.71
29371;BME280;16357;52.188;7.838;2022-10-14T08:08:31;100634.03;;;16.58;67.41
29371;BME280;16357;52.188;7.838;2022-10-14T08:13:28;100639.53;;;16.72;67.39
29371;BME280;16357;52.188;7.838;2022-10-14T08:15:55;100631.63;;;16.77;67.28
29371;BME280;16357;52.188;7.838;2022-10-14T08:18:22;100629.19;;;16.82;67.28
29371;BME280;16357;52.188;7.838;2022-10-14T08:20:48;100619.66;;;16.86;67.14
29371;BME280;16357;52.188;7.838;2022-10-14T08:23:14;100616.34;;;16.91;67.02
29371;BME280;16357;52.188;7.838;2022-10-14T08:25:48;100614.69;;;16.96;66.91
29371;BME280;16357;52.188;7.838;2022-10-14T08:28:15;100614.28;;;16.99;67.45
29371;BME280;16357;52.188;7.838;2022-10-14T08:30:41;100613.47;;;17.05;67.14
29371;BME280;16357;52.188;7.838;2022-10-14T08:33:08;100611.00;;;17.10;67.88
29371;BME280;16357;52.188;7.838;2022-10-14T08:35:34;100612.88;;;17.17;67.39
29371;BME280;16357;52.188;7.838;2022-10-14T08:38:00;100618.34;;;17.23;67.30
29371;BME280;16357;52.188;7.838;2022-10-14T08:40:28;100611.91;;;17.31;67.10
29371;BME280;16357;52.188;7.838;2022-10-14T08:42:59;100608.59;;;17.42;67.38
29371;BME280;16357;52.188;7.838;2022-10-14T08:45:34;100602.97;;;17.50;67.25
29371;BME280;16357;52.188;7.838;2022-10-14T08:48:15;100600.06;;;17.59;66.92
29371;BME280;16357;52.188;7.838;2022-10-14T08:50:50;100611.34;;;17.69;66.94
29371;BME280;16357;52.188;7.838;2022-10-14T08:53:25;100612.00;;;17.77;66.32
29371;BME280;16357;52.188;7.838;2022-10-14T08:55:57;100612.03;;;17.84;66.25
29371;BME280;16357;52.188;7.838;2022-10-14T08:58:29;100605.78;;;17.90;65.85
29371;BME280;16357;52.188;7.838;2022-10-14T09:01:00;100613.28;;;17.95;65.92
29371;BME280;16357;52.188;7.838;2022-10-14T09:03:30;100606.63;;;17.97;65.53
29371;BME280;16357;52.188;7.838;2022-10-14T09:06:02;100592.03;;;17.98;65.40
29371;BME280;16357;52.188;7.838;2022-10-14T09:08:36;100588.66;;;18.03;65.18
29371;BME280;16357;52.188;7.838;2022-10-14T09:11:09;100592.84;;;18.06;65.32
29371;BME280;16357;52.188;7.838;2022-10-14T09:13:40;100580.72;;;18.08;65.55
29371;BME280;16357;52.188;7.838;2022-10-14T09:16:23;100587.19;;;18.14;65.32
29371;BME280;16357;52.188;7.838;2022-10-14T09:18:59;100577.59;;;18.18;65.02
29371;BME280;16357;52.188;7.838;2022-10-14T09:21:34;100579.88;;;18.21;64.85
29371;BME280;16357;52.188;7.838;2022-10-14T09:24:22;100578.63;;;18.24;64.73
29371;BME280;16357;52.188;7.838;2022-10-14T09:29:51;100577.16;;;18.28;64.66
29371;BME280;16357;52.188;7.838;2022-10-14T09:34:56;100573.19;;;18.30;64.86
29371;BME280;16357;52.188;7.838;2022-10-14T09:37:31;100567.09;;;18.35;65.23
29371;BME280;16357;52.188;7.838;2022-10-14T09:42:56;100557.06;;;18.49;64.87
29371;BME280;16357;52.188;7.838;2022-10-14T09:45:25;100546.41;;;18.54;65.12
29371;BME280;16357;52.188;7.838;2022-10-14T09:47:55;100539.66;;;18.63;65.09
29371;BME280;16357;52.188;7.838;2022-10-14T09:50:28;100543.59;;;18.74;65.02
29371;BME280;16357;52.188;7.838;2022-10-14T09:53:01;100544.00;;;18.84;64.62
29371;BME280;16357;52.188;7.838;2022-10-14T09:55:29;100526.63;;;18.92;63.73
29371;BME280;16357;52.188;7.838;2022-10-14T09:58:02;100535.97;;;19.02;63.83
29371;BME280;16357;52.188;7.838;2022-10-14T10:00:34;100534.28;;;19.08;63.26
29371;BME280;16357;52.188;7.838;2022-10-14T10:03:03;100527.56;;;19.11;62.88
29371;BME280;16357;52.188;7.838;2022-10-14T10:05:31;100538.00;;;19.14;62.70
29371;BME280;16357;52.188;7.838;2022-10-14T10:08:18;100528.38;;;19.18;63.00
29371;BME280;16357;52.188;7.838;2022-10-14T10:11:04;100527.09;;;19.20;62.87
29371;BME280;16357;52.188;7.838;2022-10-14T10:13:39;100515.56;;;19.25;63.11
29371;BME280;16357;52.188;7.838;2022-10-14T10:16:29;100515.50;;;19.32;63.08
29371;BME280;16357;52.188;7.838;2022-10-14T10:18:56;100508.16;;;19.39;63.09
29371;BME280;16357;52.188;7.838;2022-10-14T10:21:28;100501.16;;;19.49;62.93
29371;BME280;16357;52.188;7.838;2022-10-14T10:23:59;100501.50;;;19.60;62.23
29371;BME280;16357;52.188;7.838;2022-10-14T10:26:28;100505.63;;;19.69;62.35
29371;BME280;16357;52.188;7.838;2022-10-14T10:29:02;100496.34;;;19.77;61.91
29371;BME280;16357;52.188;7.838;2022-10-14T10:34:19;100491.94;;;20.01;62.46
29371;BME280;16357;52.188;7.838;2022-10-14T10:36:54;100487.22;;;20.14;61.83
29371;BME280;16357;52.188;7.838;2022-10-14T10:39:39;100488.25;;;20.32;61.38
29371;BME280;16357;52.188;7.838;2022-10-14T10:42:20;100487.06;;;20.46;61.15
29371;BME280;16357;52.188;7.838;2022-10-14T10:45:02;100485.84;;;20.60;60.05
29371;BME280;16357;52.188;7.838;2022-10-14T10:47:32;100488.25;;;20.69;59.44
29371;BME280;16357;52.188;7.838;2022-10-14T10:56:06;100485.00;;;20.78;58.45
29371;BME280;16357;52.188;7.838;2022-10-14T10:58:57;100484.84;;;20.73;57.52
29371;BME280;16357;52.188;7.838;2022-10-14T11:01:34;100482.19;;;20.67;57.58
29371;BME280;16357;52.188;7.838;2022-10-14T11:04:20;100472.47;;;20.59;57.86
29371;BME280;16357;52.188;7.838;2022-10-14T11:10:02;100464.16;;;20.54;58.54
29371;BME280;16357;52.188;7.838;2022-10-14T11:13:03;100462.00;;;20.56;58.41
29371;BME280;16357;52.188;7.838;2022-10-14T11:15:40;100458.84;;;20.59;58.79
29371;BME280;16357;52.188;7.838;2022-10-14T11:18:18;100456.47;;;20.63;58.50
29371;BME280;16357;52.188;7.838;2022-10-14T11:26:49;100447.28;;;20.75;58.17
29371;BME280;16357;52.188;7.838;2022-10-14T11:32:31;100443.03;;;20.79;57.91
29371;BME280;16357;52.188;7.838;2022-10-14T11:35:41;100436.75;;;20.79;57.46
29371;BME280;16357;52.188;7.838;2022-10-14T11:46:19;100427.75;;;20.78;57.46
29371;BME280;16357;52.188;7.838;2022-10-14T11:51:37;100431.44;;;20.84;57.54
29371;BME280;16357;52.188;7.838;2022-10-14T11:54:13;100422.78;;;20.87;57.12
29371;BME280;16357;52.188;7.838;2022-10-14T11:56:58;100421.75;;;20.88;57.13
29371;BME280;16357;52.188;7.838;2022-10-14T11:59:40;100412.69;;;20.88;56.63
29371;BME280;16357;52.188;7.838;2022-10-14T12:04:51;100407.13;;;20.82;57.33
29371;BME280;16357;52.188;7.838;2022-10-14T12:07:24;100404.63;;;20.81;57.40
29371;BME280;16357;52.188;7.838;2022-10-14T12:09:58;100399.19;;;20.81;58.10
29371;BME280;16357;52.188;7.838;2022-10-14T12:12:28;100389.94;;;20.82;58.41
29371;BME280;16357;52.188;7.838;2022-10-14T12:15:03;100388.16;;;20.88;58.92
29371;BME280;16357;52.188;7.838;2022-10-14T12:17:52;100384.75;;;20.92;58.54
29371;BME280;16357;52.188;7.838;2022-10-14T12:20:42;100378.94;;;21.00;58.31
29371;BME280;16357;52.188;7.838;2022-10-14T12:23:30;100380.75;;;21.07;58.13
29371;BME280;16357;52.188;7.838;2022-10-14T12:26:26;100375.19;;;21.13;58.07
29371;BME280;16357;52.188;7.838;2022-10-14T12:28:55;100371.38;;;21.14;57.68
29371;BME280;16357;52.188;7.838;2022-10-14T12:36:40;100355.38;;;21.18;57.13
29371;BME280;16357;52.188;7.838;2022-10-14T12:41:50;100366.28;;;21.18;56.88
29371;BME280;16357;52.188;7.838;2022-10-14T12:44:21;100354.19;;;21.14;56.94
29371;BME280;16357;52.188;7.838;2022-10-14T12:46:50;100350.88;;;21.12;56.86
29371;BME280;16357;52.188;7.838;2022-10-14T12:49:26;100347.56;;;21.10;56.78
29371;BME280;16357;52.188;7.838;2022-10-14T12:52:00;100350.75;;;21.07;56.69
29371;BME280;16357;52.188;7.838;2022-10-14T12:54:28;100345.75;;;21.03;56.70
29371;BME280;16357;52.188;7.838;2022-10-14T12:57:26;100338.88;;;21.01;56.95
29371;BME280;16357;52.188;7.838;2022-10-14T12:59:56;100338.50;;;20.97;56.47
29371;BME280;16357;52.188;7.838;2022-10-14T13:02:34;100330.59;;;20.96;56.51
29371;BME280;16357;52.188;7.838;2022-10-14T13:05:06;100332.47;;;20.95;56.79
29371;BME280;16357;52.188;7.838;2022-10-14T13:12:52;100315.88;;;20.97;56.37
29371;BME280;16357;52.188;7.838;2022-10-14T13:15:49;100317.53;;;20.98;56.57
29371;BME280;16357;52.188;7.838;2022-10-14T13:18:32;100316.69;;;20.97;56.43
29371;BME280;16357;52.188;7.838;2022-10-14T13:21:00;100311.72;;;20.94;56.31
29371;BME280;16357;52.188;7.838;2022-10-14T13:40:15;100290.13;;;20.81;56.61
29371;BME280;16357;52.188;7.838;2022-10-14T13:42:54;100291.44;;;20.78;56.48
29371;BME280;16357;52.188;7.838;2022-10-14T13:45:29;100281.81;;;20.76;56.91
29371;BME280;16357;52.188;7.838;2022-10-14T13:47:57;100278.50;;;20.74;56.66
29371;BME280;16357;52.188;7.838;2022-10-14T13:50:30;100278.50;;;20.74;56.70
29371;BME280;16357;52.188;7.838;2022-10-14T13:53:00;100272.22;;;20.73;56.94
29371;BME280;16357;52.188;7.838;2022-10-14T13:55:28;100269.72;;;20.72;56.99
29371;BME280;16357;52.188;7.838;2022-10-14T13:58:09;100267.84;;;20.72;56.96
29371;BME280;16357;52.188;7.838;2022-10-14T14:00:42;100265.13;;;20.72;57.44
29371;BME280;16357;52.188;7.838;2022-10-14T14:03:21;100260.47;;;20.73;57.71
29371;BME280;16357;52.188;7.838;2022-10-14T14:05:49;100254.66;;;20.69;57.64
29371;BME280;16357;52.188;7.838;2022-10-14T14:08:25;100250.06;;;20.70;57.94
29371;BME280;16357;52.188;7.838;2022-10-14T14:11:07;100243.41;;;20.66;58.00
29371;BME280;16357;52.188;7.838;2022-10-14T14:13:48;100242.31;;;20.67;57.92
29371;BME280;16357;52.188;7.838;2022-10-14T14:16:31;100234.63;;;20.64;58.30
29371;BME280;16357;52.188;7.838;2022-10-14T14:18:58;100236.16;;;20.59;58.17
29371;BME280;16357;52.188;7.838;2022-10-14T14:21:40;100235.56;;;20.57;58.76
29371;BME280;16357;52.188;7.838;2022-10-14T14:24:14;100230.34;;;20.56;58.52
29371;BME280;16357;52.188;7.838;2022-10-14T14:26:41;100217.16;;;20.53;58.86
29371;BME280;16357;52.188;7.838;2022-10-14T14:29:18;100224.50;;;20.52;58.81
29371;BME280;16357;52.188;7.838;2022-10-14T14:31:45;100226.63;;;20.50;59.32
29371;BME280;16357;52.188;7.838;2022-10-14T14:34:33;100219.53;;;20.49;59.37
29371;BME280;16357;52.188;7.838;2022-10-14T14:37:01;100224.16;;;20.49;59.59
29371;BME280;16357;52.188;7.838;2022-10-14T14:40:01;100219.06;;;20.52;59.88
29371;BME280;16357;52.188;7.838;2022-10-14T14:42:36;100222.88;;;20.51;59.35
29371;BME280;16357;52.188;7.838;2022-10-14T14:47:43;100214.69;;;20.51;59.61